sensor_id;sensor_type;location;lat;lon;timestamp;pressure;altitude;pressure_sealevel;temperature;humidity
77003;BME280;65939;50.060;14.288;2023-05-21T00:00:46;97429.59;;;14.88;91.10
77003;BME280;65939;50.060;14.288;2023-05-21T00:02:48;97428.78;;;14.88;91.03
77003;BME280;65939;50.060;14.288;2023-05-21T00:04:48;97430.13;;;14.83;90.84
77003;BME280;65939;50.060;14.288;2023-05-21T00:06:50;97437.38;;;14.81;91.07
77003;BME280;65939;50.060;14.288;2023-05-21T00:08:51;97435.75;;;14.80;91.42
77003;BME280;65939;50.060;14.288;2023-05-21T00:10:52;97431.84;;;14.76;91.79
77003;BME280;65939;50.060;14.288;2023-05-21T00:12:52;97434.81;;;14.73;92.16
77003;BME280;65939;50.060;14.288;2023-05-21T00:14:53;97428.91;;;14.71;92.18
77003;BME280;65939;50.060;14.288;2023-05-21T00:16:54;97419.75;;;14.67;91.90
77003;BME280;65939;50.060;14.288;2023-05-21T00:18:54;97420.75;;;14.66;91.58
77003;BME280;65939;50.060;14.288;2023-05-21T00:20:57;97423.75;;;14.63;92.10
77003;BME280;65939;50.060;14.288;2023-05-21T00:22:59;97420.47;;;14.61;92.28
77003;BME280;65939;50.060;14.288;2023-05-21T00:25:02;97419.00;;;14.58;92.32
77003;BME280;65939;50.060;14.288;2023-05-21T00:27:04;97421.00;;;14.56;92.44
77003;BME280;65939;50.060;14.288;2023-05-21T00:29:05;97419.53;;;14.54;92.84
77003;BME280;65939;50.060;14.288;2023-05-21T00:31:06;97413.66;;;14.52;92.78
77003;BME280;65939;50.060;14.288;2023-05-21T00:33:06;97410.38;;;14.50;92.91
77003;BME280;65939;50.060;14.288;2023-05-21T00:35:09;97416.59;;;14.49;92.90
77003;BME280;65939;50.060;14.288;2023-05-21T00:37:10;97412.31;;;14.48;92.88
77003;BME280;65939;50.060;14.288;2023-05-21T00:39:12;97407.44;;;14.45;92.82
77003;BME280;65939;50.060;14.288;2023-05-21T00:41:13;97412.06;;;14.43;93.10
77003;BME280;65939;50.060;14.288;2023-05-21T00:43:13;97414.03;;;14.41;92.98
77003;BME280;65939;50.060;14.288;2023-05-21T00:45:14;97405.53;;;14.38;93.11
77003;BME280;65939;50.060;14.288;2023-05-21T00:47:15;97407.34;;;14.38;93.37
77003;BME280;65939;50.060;14.288;2023-05-21T00:49:18;97411.13;;;14.35;93.27
77003;BME280;65939;50.060;14.288;2023-05-21T00:51:19;97400.81;;;14.34;93.14
77003;BME280;65939;50.060;14.288;2023-05-21T00:53:21;97410.47;;;14.33;93.47
77003;BME280;65939;50.060;14.288;2023-05-21T00:55:21;97398.53;;;14.31;93.89
77003;BME280;65939;50.060;14.288;2023-05-21T00:57:24;97400.50;;;14.29;94.38
77003;BME280;65939;50.060;14.288;2023-05-21T00:59:26;97403.31;;;14.27;93.95
77003;BME280;65939;50.060;14.288;2023-05-21T01:01:27;97401.66;;;14.26;94.59
77003;BME280;65939;50.060;14.288;2023-05-21T01:03:34;97394.16;;;14.23;94.68
77003;BME280;65939;50.060;14.288;2023-05-21T01:05:38;97395.13;;;14.22;94.65
77003;BME280;65939;50.060;14.288;2023-05-21T01:07:39;97394.50;;;14.20;95.23
77003;BME280;65939;50.060;14.288;2023-05-21T01:09:41;97392.84;;;14.19;95.20
77003;BME280;65939;50.060;14.288;2023-05-21T01:11:45;97391.22;;;14.18;94.74
77003;BME280;65939;50.060;14.288;2023-05-21T01:13:48;97399.28;;;14.17;94.33
77003;BME280;65939;50.060;14.288;2023-05-21T01:15:51;97391.41;;;14.17;94.89
77003;BME280;65939;50.060;14.288;2023-05-21T01:17:53;97386.31;;;14.15;95.58
77003;BME280;65939;50.060;14.288;2023-05-21T01:19:57;97390.75;;;14.14;94.99
77003;BME280;65939;50.060;14.288;2023-05-21T01:22:05;97386.69;;;14.12;95.20
77003;BME280;65939;50.060;14.288;2023-05-21T01:24:06;97389.31;;;14.12;95.63
77003;BME280;65939;50.060;14.288;2023-05-21T01:26:07;97391.13;;;14.11;95.62
77003;BME280;65939;50.060;14.288;2023-05-21T01:28:08;97386.88;;;14.10;95.13
77003;BME280;65939;50.060;14.288;2023-05-21T01:30:09;97389.69;;;14.09;94.68
77003;BME280;65939;50.060;14.288;2023-05-21T01:32:32;97386.41;;;14.07;94.93
77003;BME280;65939;50.060;14.288;2023-05-21T01:34:44;97386.59;;;14.05;94.94
77003;BME280;65939;50.060;14.288;2023-05-21T01:36:56;97386.75;;;14.04;95.54
77003;BME280;65939;50.060;14.288;2023-05-21T01:39:08;97388.75;;;14.02;94.86
77003;BME280;65939;50.060;14.288;2023-05-21T01:41:11;97383.50;;;14.02;95.02
77003;BME280;65939;50.060;14.288;2023-05-21T01:43:14;97386.28;;;14.00;95.35
77003;BME280;65939;50.060;14.288;2023-05-21T01:45:16;97385.47;;;14.00;95.56
77003;BME280;65939;50.060;14.288;2023-05-21T01:47:22;97386.63;;;13.97;94.88
77003;BME280;65939;50.060;14.288;2023-05-21T01:49:23;97381.38;;;13.97;94.89
77003;BME280;65939;50.060;14.288;2023-05-21T01:51:26;97383.53;;;13.94;94.80
77003;BME280;65939;50.060;14.288;2023-05-21T01:53:27;97377.47;;;13.93;94.66
77003;BME280;65939;50.060;14.288;2023-05-21T01:55:28;97379.47;;;13.91;95.41
77003;BME280;65939;50.060;14.288;2023-05-21T01:57:30;97376.00;;;13.90;95.13
77003;BME280;65939;50.060;14.288;2023-05-21T01:59:31;97373.75;;;13.87;94.89
77003;BME280;65939;50.060;14.288;2023-05-21T02:01:32;97370.13;;;13.88;95.21
77003;BME280;65939;50.060;14.288;2023-05-21T02:03:33;97375.53;;;13.87;95.01
77003;BME280;65939;50.060;14.288;2023-05-21T02:05:34;97374.91;;;13.85;95.61
77003;BME280;65939;50.060;14.288;2023-05-21T02:07:35;97379.34;;;13.84;95.03
77003;BME280;65939;50.060;14.288;2023-05-21T02:09:36;97377.88;;;13.82;94.72
77003;BME280;65939;50.060;14.288;2023-05-21T02:11:37;97381.50;;;13.81;95.16
77003;BME280;65939;50.060;14.288;2023-05-21T02:13:38;97382.47;;;13.80;95.62
77003;BME280;65939;50.060;14.288;2023-05-21T02:15:41;97380.84;;;13.79;96.15
77003;BME280;65939;50.060;14.288;2023-05-21T02:17:42;97387.25;;;13.76;95.83
77003;BME280;65939;50.060;14.288;2023-05-21T02:19:43;97385.63;;;13.75;95.63
77003;BME280;65939;50.060;14.288;2023-05-21T02:21:44;97385.97;;;13.72;95.49
77003;BME280;65939;50.060;14.288;2023-05-21T02:23:45;97391.22;;;13.72;96.09
77003;BME280;65939;50.060;14.288;2023-05-21T02:25:46;97387.16;;;13.70;95.59
77003;BME280;65939;50.060;14.288;2023-05-21T02:27:47;97385.66;;;13.67;95.96
77003;BME280;65939;50.060;14.288;2023-05-21T02:29:52;97391.91;;;13.66;95.70
77003;BME280;65939;50.060;14.288;2023-05-21T02:31:52;97382.56;;;13.63;96.28
77003;BME280;65939;50.060;14.288;2023-05-21T02:33:53;97385.34;;;13.62;96.03
77003;BME280;65939;50.060;14.288;2023-05-21T02:35:54;97383.72;;;13.61;95.62
77003;BME280;65939;50.060;14.288;2023-05-21T02:37:54;97380.44;;;13.59;96.04
77003;BME280;65939;50.060;14.288;2023-05-21T02:39:59;97378.00;;;13.57;96.70
77003;BME280;65939;50.060;14.288;2023-05-21T02:42:00;97372.28;;;13.54;96.30
77003;BME280;65939;50.060;14.288;2023-05-21T02:44:00;97375.91;;;13.53;96.41
77003;BME280;65939;50.060;14.288;2023-05-21T02:46:01;97376.06;;;13.51;97.06
77003;BME280;65939;50.060;14.288;2023-05-21T02:48:02;97377.06;;;13.50;97.45
77003;BME280;65939;50.060;14.288;2023-05-21T02:50:04;97367.56;;;13.49;96.45
77003;BME280;65939;50.060;14.288;2023-05-21T02:52:05;97365.75;;;13.50;97.50
77003;BME280;65939;50.060;14.288;2023-05-21T02:54:06;97374.63;;;13.49;97.46
77003;BME280;65939;50.060;14.288;2023-05-21T02:56:07;97370.19;;;13.49;96.80
77003;BME280;65939;50.060;14.288;2023-05-21T02:58:08;97369.53;;;13.47;96.13
77003;BME280;65939;50.060;14.288;2023-05-21T03:00:09;97372.16;;;13.47;96.71
77003;BME280;65939;50.060;14.288;2023-05-21T03:02:11;97363.66;;;13.45;97.24
77003;BME280;65939;50.060;14.288;2023-05-21T03:04:11;97374.16;;;13.45;97.69
77003;BME280;65939;50.060;14.288;2023-05-21T03:06:12;97374.97;;;13.46;97.33
77003;BME280;65939;50.060;14.288;2023-05-21T03:08:13;97382.84;;;13.46;96.67
77003;BME280;65939;50.060;14.288;2023-05-21T03:10:14;97379.41;;;13.45;96.94
77003;BME280;65939;50.060;14.288;2023-05-21T03:12:15;97377.59;;;13.46;97.21
77003;BME280;65939;50.060;14.288;2023-05-21T03:14:16;97381.84;;;13.47;97.05
77003;BME280;65939;50.060;14.288;2023-05-21T03:16:16;97378.56;;;13.45;97.59
77003;BME280;65939;50.060;14.288;2023-05-21T03:18:17;97375.13;;;13.44;97.85
77003;BME280;65939;50.060;14.288;2023-05-21T03:20:18;97375.94;;;13.45;97.73
77003;BME280;65939;50.060;14.288;2023-05-21T03:22:18;97380.22;;;13.46;97.40
77003;BME280;65939;50.060;14.288;2023-05-21T03:24:19;97378.22;;;13.48;97.96
77003;BME280;65939;50.060;14.288;2023-05-21T03:26:20;97378.06;;;13.49;98.17
77003;BME280;65939;50.060;14.288;2023-05-21T03:28:21;97377.88;;;13.51;98.06
77003;BME280;65939;50.060;14.288;2023-05-21T03:30:22;97372.09;;;13.55;98.87
77003;BME280;65939;50.060;14.288;2023-05-21T03:32:22;97371.94;;;13.57;98.34
77003;BME280;65939;50.060;14.288;2023-05-21T03:34:23;97369.00;;;13.60;98.36
77003;BME280;65939;50.060;14.288;2023-05-21T03:36:24;97374.72;;;13.63;98.13
77003;BME280;65939;50.060;14.288;2023-05-21T03:38:25;97375.19;;;13.67;98.72
77003;BME280;65939;50.060;14.288;2023-05-21T03:40:25;97377.47;;;13.70;98.10
77003;BME280;65939;50.060;14.288;2023-05-21T03:42:26;97371.88;;;13.73;98.17
77003;BME280;65939;50.060;14.288;2023-05-21T03:44:26;97368.72;;;13.78;97.79
77003;BME280;65939;50.060;14.288;2023-05-21T03:46:27;97368.19;;;13.82;97.70
77003;BME280;65939;50.060;14.288;2023-05-21T03:48:28;97367.19;;;13.83;97.31
77003;BME280;65939;50.060;14.288;2023-05-21T03:50:28;97368.84;;;13.84;96.33
77003;BME280;65939;50.060;14.288;2023-05-21T03:52:30;97363.59;;;13.84;96.27
77003;BME280;65939;50.060;14.288;2023-05-21T03:54:31;97372.91;;;13.87;96.31
77003;BME280;65939;50.060;14.288;2023-05-21T03:56:31;97375.03;;;13.92;96.62
77003;BME280;65939;50.060;14.288;2023-05-21T03:58:32;97379.56;;;13.98;96.29
77003;BME280;65939;50.060;14.288;2023-05-21T04:00:33;97387.75;;;14.03;95.89
77003;BME280;65939;50.060;14.288;2023-05-21T04:02:33;97379.34;;;14.07;94.60
77003;BME280;65939;50.060;14.288;2023-05-21T04:04:34;97386.53;;;14.13;94.70
77003;BME280;65939;50.060;14.288;2023-05-21T04:06:36;97383.53;;;14.17;95.72
77003;BME280;65939;50.060;14.288;2023-05-21T04:08:37;97376.59;;;14.24;95.60
77003;BME280;65939;50.060;14.288;2023-05-21T04:10:38;97380.31;;;14.29;95.25
77003;BME280;65939;50.060;14.288;2023-05-21T04:12:39;97383.03;;;14.36;95.32
77003;BME280;65939;50.060;14.288;2023-05-21T04:14:40;97381.00;;;14.46;95.39
77003;BME280;65939;50.060;14.288;2023-05-21T04:16:40;97380.13;;;14.54;94.78
77003;BME280;65939;50.060;14.288;2023-05-21T04:18:44;97387.31;;;14.60;94.84
77003;BME280;65939;50.060;14.288;2023-05-21T04:20:45;97387.13;;;14.61;94.98
77003;BME280;65939;50.060;14.288;2023-05-21T04:22:46;97390.03;;;14.67;94.89
77003;BME280;65939;50.060;14.288;2023-05-21T04:24:46;97388.50;;;14.72;93.90
77003;BME280;65939;50.060;14.288;2023-05-21T04:26:48;97392.41;;;14.76;94.06
77003;BME280;65939;50.060;14.288;2023-05-21T04:28:49;97389.88;;;14.83;94.71
77003;BME280;65939;50.060;14.288;2023-05-21T04:30:50;97390.78;;;14.90;93.76
77003;BME280;65939;50.060;14.288;2023-05-21T04:32:51;97388.25;;;14.97;93.40
77003;BME280;65939;50.060;14.288;2023-05-21T04:34:52;97388.53;;;15.02;93.49
77003;BME280;65939;50.060;14.288;2023-05-21T04:36:52;97388.63;;;15.08;92.77
77003;BME280;65939;50.060;14.288;2023-05-21T04:38:53;97381.38;;;15.11;93.09
77003;BME280;65939;50.060;14.288;2023-05-21T04:40:54;97389.53;;;15.16;92.82
77003;BME280;65939;50.060;14.288;2023-05-21T04:42:58;97394.84;;;15.22;92.68
77003;BME280;65939;50.060;14.288;2023-05-21T04:45:00;97393.78;;;15.31;92.55
77003;BME280;65939;50.060;14.288;2023-05-21T04:47:03;97389.41;;;15.39;92.49
77003;BME280;65939;50.060;14.288;2023-05-21T04:49:03;97396.75;;;15.43;92.26
77003;BME280;65939;50.060;14.288;2023-05-21T04:51:04;97399.31;;;15.51;92.76
77003;BME280;65939;50.060;14.288;2023-05-21T04:53:05;97396.34;;;15.61;92.85
77003;BME280;65939;50.060;14.288;2023-05-21T04:55:07;97396.31;;;15.69;92.84
77003;BME280;65939;50.060;14.288;2023-05-21T04:57:08;97409.34;;;15.77;92.17
77003;BME280;65939;50.060;14.288;2023-05-21T04:59:08;97398.88;;;15.84;91.73
77003;BME280;65939;50.060;14.288;2023-05-21T05:01:09;97403.03;;;15.93;91.01
77003;BME280;65939;50.060;14.288;2023-05-21T05:03:12;97410.00;;;16.01;91.08
77003;BME280;65939;50.060;14.288;2023-05-21T05:05:12;97399.16;;;16.11;91.13
77003;BME280;65939;50.060;14.288;2023-05-21T05:07:13;97400.47;;;16.21;90.17
77003;BME280;65939;50.060;14.288;2023-05-21T05:09:15;97399.78;;;16.34;90.83
77003;BME280;65939;50.060;14.288;2023-05-21T05:11:15;97394.00;;;16.45;90.73
77003;BME280;65939;50.060;14.288;2023-05-21T05:13:16;97392.47;;;16.58;90.19
77003;BME280;65939;50.060;14.288;2023-05-21T05:15:17;97386.09;;;16.73;90.76
77003;BME280;65939;50.060;14.288;2023-05-21T05:17:17;97380.72;;;16.82;89.89
77003;BME280;65939;50.060;14.288;2023-05-21T05:19:19;97383.00;;;16.91;89.78
77003;BME280;65939;50.060;14.288;2023-05-21T05:21:21;97385.69;;;16.98;89.09
77003;BME280;65939;50.060;14.288;2023-05-21T05:23:21;97390.41;;;17.09;89.88
77003;BME280;65939;50.060;14.288;2023-05-21T05:25:22;97388.63;;;17.16;89.10
77003;BME280;65939;50.060;14.288;2023-05-21T05:27:23;97389.09;;;17.27;89.27
77003;BME280;65939;50.060;14.288;2023-05-21T05:29:23;97383.88;;;17.40;88.71
77003;BME280;65939;50.060;14.288;2023-05-21T05:31:24;97385.34;;;17.56;88.82
77003;BME280;65939;50.060;14.288;2023-05-21T05:33:25;97378.31;;;17.69;88.74
77003;BME280;65939;50.060;14.288;2023-05-21T05:35:25;97391.59;;;17.83;87.99
77003;BME280;65939;50.060;14.288;2023-05-21T05:37:26;97381.63;;;17.91;87.38
77003;BME280;65939;50.060;14.288;2023-05-21T05:39:27;97379.66;;;18.00;86.83
77003;BME280;65939;50.060;14.288;2023-05-21T05:41:27;97373.13;;;18.09;86.65
77003;BME280;65939;50.060;14.288;2023-05-21T05:43:29;97380.47;;;18.21;86.85
77003;BME280;65939;50.060;14.288;2023-05-21T05:45:29;97374.38;;;18.33;86.57
77003;BME280;65939;50.060;14.288;2023-05-21T05:47:30;97378.03;;;18.46;86.05
77003;BME280;65939;50.060;14.288;2023-05-21T05:49:31;97370.34;;;18.57;84.90
77003;BME280;65939;50.060;14.288;2023-05-21T05:51:31;97375.00;;;18.69;84.47
77003;BME280;65939;50.060;14.288;2023-05-21T05:53:32;97371.94;;;18.78;84.24
77003;BME280;65939;50.060;14.288;2023-05-21T05:55:33;97376.00;;;18.87;84.23
77003;BME280;65939;50.060;14.288;2023-05-21T05:57:33;97378.63;;;19.01;84.40
77003;BME280;65939;50.060;14.288;2023-05-21T05:59:35;97379.03;;;19.11;83.56
77003;BME280;65939;50.060;14.288;2023-05-21T06:01:35;97376.38;;;19.11;83.27
77003;BME280;65939;50.060;14.288;2023-05-21T06:03:36;97375.53;;;19.17;83.48
77003;BME280;65939;50.060;14.288;2023-05-21T06:05:37;97378.38;;;19.29;83.60
77003;BME280;65939;50.060;14.288;2023-05-21T06:07:38;97366.91;;;19.42;82.99
77003;BME280;65939;50.060;14.288;2023-05-21T06:09:39;97374.19;;;19.53;82.11
77003;BME280;65939;50.060;14.288;2023-05-21T06:11:40;97374.56;;;19.63;82.07
77003;BME280;65939;50.060;14.288;2023-05-21T06:13:41;97368.84;;;19.73;80.88
77003;BME280;65939;50.060;14.288;2023-05-21T06:15:42;97374.25;;;19.84;81.39
77003;BME280;65939;50.060;14.288;2023-05-21T06:17:43;97365.44;;;19.97;80.67
77003;BME280;65939;50.060;14.288;2023-05-21T06:19:44;97370.66;;;20.11;79.82
77003;BME280;65939;50.060;14.288;2023-05-21T06:21:45;97360.97;;;20.23;79.43
77003;BME280;65939;50.060;14.288;2023-05-21T06:23:46;97372.34;;;20.30;78.75
77003;BME280;65939;50.060;14.288;2023-05-21T06:25:47;97368.00;;;20.42;78.96
77003;BME280;65939;50.060;14.288;2023-05-21T06:27:47;97363.00;;;20.52;77.95
77003;BME280;65939;50.060;14.288;2023-05-21T06:29:48;97369.25;;;20.65;78.82
77003;BME280;65939;50.060;14.288;2023-05-21T06:31:49;97373.59;;;20.77;77.51
77003;BME280;65939;50.060;14.288;2023-05-21T06:33:50;97373.34;;;20.86;77.07
77003;BME280;65939;50.060;14.288;2023-05-21T06:35:50;97381.03;;;20.94;77.32
77003;BME280;65939;50.060;14.288;2023-05-21T06:37:51;97371.94;;;21.01;76.73
77003;BME280;65939;50.060;14.288;2023-05-21T06:39:52;97373.72;;;21.08;76.60
77003;BME280;65939;50.060;14.288;2023-05-21T06:41:52;97370.78;;;21.16;76.47
77003;BME280;65939;50.060;14.288;2023-05-21T06:43:53;97381.56;;;21.21;75.99
77003;BME280;65939;50.060;14.288;2023-05-21T06:45:54;97377.44;;;21.25;76.20
77003;BME280;65939;50.060;14.288;2023-05-21T06:47:55;97372.25;;;21.30;75.75
77003;BME280;65939;50.060;14.288;2023-05-21T06:49:55;97369.34;;;21.38;75.51
77003;BME280;65939;50.060;14.288;2023-05-21T06:51:56;97367.44;;;21.45;75.39
77003;BME280;65939;50.060;14.288;2023-05-21T06:53:57;97368.97;;;21.53;75.32
77003;BME280;65939;50.060;14.288;2023-05-21T06:55:58;97364.75;;;21.64;74.72
77003;BME280;65939;50.060;14.288;2023-05-21T06:57:58;97372.75;;;21.75;74.97
77003;BME280;65939;50.060;14.288;2023-05-21T06:59:59;97375.44;;;21.87;74.58
77003;BME280;65939;50.060;14.288;2023-05-21T07:02:00;97368.56;;;21.98;74.13
77003;BME280;65939;50.060;14.288;2023-05-21T07:04:01;97374.38;;;22.07;73.40
77003;BME280;65939;50.060;14.288;2023-05-21T07:06:03;97378.34;;;22.16;74.12
77003;BME280;65939;50.060;14.288;2023-05-21T07:08:03;97376.19;;;22.25;73.69
77003;BME280;65939;50.060;14.288;2023-05-21T07:10:04;97372.50;;;22.37;73.35
77003;BME280;65939;50.060;14.288;2023-05-21T07:12:05;97368.94;;;22.43;72.17
77003;BME280;65939;50.060;14.288;2023-05-21T07:14:07;97373.69;;;22.53;72.65
77003;BME280;65939;50.060;14.288;2023-05-21T07:16:08;97365.72;;;22.65;72.32
77003;BME280;65939;50.060;14.288;2023-05-21T07:18:09;97372.44;;;22.79;71.50
77003;BME280;65939;50.060;14.288;2023-05-21T07:20:11;97377.56;;;22.92;71.49
77003;BME280;65939;50.060;14.288;2023-05-21T07:22:12;97367.00;;;22.98;71.68
77003;BME280;65939;50.060;14.288;2023-05-21T07:24:14;97368.19;;;23.02;71.54
77003;BME280;65939;50.060;14.288;2023-05-21T07:26:15;97375.22;;;23.08;71.70
77003;BME280;65939;50.060;14.288;2023-05-21T07:28:16;97372.56;;;23.20;71.52
77003;BME280;65939;50.060;14.288;2023-05-21T07:30:16;97365.69;;;23.35;70.33
77003;BME280;65939;50.060;14.288;2023-05-21T07:32:17;97372.38;;;23.50;70.69
77003;BME280;65939;50.060;14.288;2023-05-21T07:34:18;97364.22;;;23.68;69.61
77003;BME280;65939;50.060;14.288;2023-05-21T07:36:18;97365.34;;;23.84;68.70
77003;BME280;65939;50.060;14.288;2023-05-21T07:38:19;97369.56;;;23.97;68.58
77003;BME280;65939;50.060;14.288;2023-05-21T07:40:20;97366.47;;;24.05;67.89
77003;BME280;65939;50.060;14.288;2023-05-21T07:42:20;97370.66;;;24.12;67.83
77003;BME280;65939;50.060;14.288;2023-05-21T07:44:21;97373.38;;;24.18;67.75
77003;BME280;65939;50.060;14.288;2023-05-21T07:46:21;97375.31;;;24.22;67.93
77003;BME280;65939;50.060;14.288;2023-05-21T07:48:22;97369.03;;;24.28;67.33
77003;BME280;65939;50.060;14.288;2023-05-21T07:50:24;97366.47;;;24.33;66.90
77003;BME280;65939;50.060;14.288;2023-05-21T07:52:25;97369.22;;;24.38;66.76
77003;BME280;65939;50.060;14.288;2023-05-21T07:54:25;97362.94;;;24.45;67.05
77003;BME280;65939;50.060;14.288;2023-05-21T07:56:26;97373.13;;;24.48;66.82
77003;BME280;65939;50.060;14.288;2023-05-21T07:58:28;97363.50;;;24.47;66.24
77003;BME280;65939;50.060;14.288;2023-05-21T08:00:41;97370.75;;;24.34;66.24
77003;BME280;65939;50.060;14.288;2023-05-21T08:02:42;97365.63;;;24.33;66.55
77003;BME280;65939;50.060;14.288;2023-05-21T08:04:43;97374.53;;;24.38;67.27
77003;BME280;65939;50.060;14.288;2023-05-21T08:06:44;97373.69;;;24.50;66.68
77003;BME280;65939;50.060;14.288;2023-05-21T08:08:45;97368.44;;;24.55;67.13
77003;BME280;65939;50.060;14.288;2023-05-21T08:10:46;97367.13;;;24.57;65.65
77003;BME280;65939;50.060;14.288;2023-05-21T08:12:47;97362.84;;;24.56;65.05
77003;BME280;65939;50.060;14.288;2023-05-21T08:14:48;97364.47;;;24.57;66.39
77003;BME280;65939;50.060;14.288;2023-05-21T08:16:48;97366.41;;;24.62;66.15
77003;BME280;65939;50.060;14.288;2023-05-21T08:18:49;97366.66;;;24.60;65.41
77003;BME280;65939;50.060;14.288;2023-05-21T08:20:50;97361.25;;;24.55;65.39
77003;BME280;65939;50.060;14.288;2023-05-21T08:22:51;97366.66;;;24.60;65.54
77003;BME280;65939;50.060;14.288;2023-05-21T08:24:52;97365.69;;;24.67;65.70
77003;BME280;65939;50.060;14.288;2023-05-21T08:26:53;97357.03;;;24.59;64.41
77003;BME280;65939;50.060;14.288;2023-05-21T08:28:54;97356.13;;;24.54;65.16
77003;BME280;65939;50.060;14.288;2023-05-21T08:30:54;97359.22;;;24.63;66.27
77003;BME280;65939;50.060;14.288;2023-05-21T08:32:55;97354.34;;;24.76;66.15
77003;BME280;65939;50.060;14.288;2023-05-21T08:34:56;97355.84;;;24.89;64.98
77003;BME280;65939;50.060;14.288;2023-05-21T08:36:57;97356.75;;;24.95;64.78
77003;BME280;65939;50.060;14.288;2023-05-21T08:38:58;97346.69;;;25.02;65.55
77003;BME280;65939;50.060;14.288;2023-05-21T08:40:58;97358.56;;;25.11;65.39
77003;BME280;65939;50.060;14.288;2023-05-21T08:43:00;97354.63;;;25.14;64.26
77003;BME280;65939;50.060;14.288;2023-05-21T08:45:04;97361.34;;;25.16;64.22
77003;BME280;65939;50.060;14.288;2023-05-21T08:47:06;97352.03;;;25.19;63.83
77003;BME280;65939;50.060;14.288;2023-05-21T08:49:11;97349.09;;;25.20;64.67
77003;BME280;65939;50.060;14.288;2023-05-21T08:51:12;97352.97;;;25.29;64.90
77003;BME280;65939;50.060;14.288;2023-05-21T08:53:13;97346.59;;;25.36;65.07
77003;BME280;65939;50.060;14.288;2023-05-21T08:55:14;97349.34;;;25.41;64.82
77003;BME280;65939;50.060;14.288;2023-05-21T08:57:17;97353.13;;;25.45;62.92
77003;BME280;65939;50.060;14.288;2023-05-21T08:59:20;97343.28;;;25.50;63.73
77003;BME280;65939;50.060;14.288;2023-05-21T09:01:21;97343.41;;;25.61;64.47
77003;BME280;65939;50.060;14.288;2023-05-21T09:03:23;97341.13;;;25.69;62.75
77003;BME280;65939;50.060;14.288;2023-05-21T09:05:24;97340.94;;;25.76;62.27
77003;BME280;65939;50.060;14.288;2023-05-21T09:07:25;97343.34;;;25.77;63.02
77003;BME280;65939;50.060;14.288;2023-05-21T09:09:34;97340.06;;;25.70;62.78
77003;BME280;65939;50.060;14.288;2023-05-21T09:11:38;97346.28;;;25.76;64.02
77003;BME280;65939;50.060;14.288;2023-05-21T09:13:50;97339.44;;;25.85;63.20
77003;BME280;65939;50.060;14.288;2023-05-21T09:15:52;97339.78;;;25.94;62.77
77003;BME280;65939;50.060;14.288;2023-05-21T09:17:53;97343.06;;;26.01;63.31
77003;BME280;65939;50.060;14.288;2023-05-21T09:22:15;97341.84;;;26.14;62.43
77003;BME280;65939;50.060;14.288;2023-05-21T09:24:15;97344.81;;;26.17;62.87
77003;BME280;65939;50.060;14.288;2023-05-21T09:26:16;97348.59;;;26.21;62.28
77003;BME280;65939;50.060;14.288;2023-05-21T09:28:18;97344.81;;;26.17;61.93
77003;BME280;65939;50.060;14.288;2023-05-21T09:30:18;97334.06;;;26.12;61.90
77003;BME280;65939;50.060;14.288;2023-05-21T09:32:19;97342.91;;;26.13;61.90
77003;BME280;65939;50.060;14.288;2023-05-21T09:34:20;97336.75;;;26.12;61.48
77003;BME280;65939;50.060;14.288;2023-05-21T09:36:24;97338.72;;;26.22;63.62
77003;BME280;65939;50.060;14.288;2023-05-21T09:38:25;97346.50;;;26.28;62.26
77003;BME280;65939;50.060;14.288;2023-05-21T09:40:26;97337.28;;;26.14;60.95
77003;BME280;65939;50.060;14.288;2023-05-21T09:42:28;97341.94;;;25.97;61.00
77003;BME280;65939;50.060;14.288;2023-05-21T09:44:29;97331.78;;;25.94;62.05
77003;BME280;65939;50.060;14.288;2023-05-21T09:46:40;97333.88;;;25.92;61.53
77003;BME280;65939;50.060;14.288;2023-05-21T09:48:41;97339.84;;;25.77;61.12
77003;BME280;65939;50.060;14.288;2023-05-21T09:50:42;97339.69;;;25.62;61.04
77003;BME280;65939;50.060;14.288;2023-05-21T09:52:43;97333.94;;;25.48;61.60
77003;BME280;65939;50.060;14.288;2023-05-21T09:54:44;97337.84;;;25.40;62.47
77003;BME280;65939;50.060;14.288;2023-05-21T09:56:44;97337.22;;;25.33;62.50
77003;BME280;65939;50.060;14.288;2023-05-21T09:58:45;97335.84;;;25.30;62.16
77003;BME280;65939;50.060;14.288;2023-05-21T10:00:46;97325.66;;;25.27;62.02
77003;BME280;65939;50.060;14.288;2023-05-21T10:02:49;97325.47;;;25.34;62.20
77003;BME280;65939;50.060;14.288;2023-05-21T10:04:51;97325.94;;;25.53;62.12
77003;BME280;65939;50.060;14.288;2023-05-21T10:06:53;97329.66;;;25.74;61.87
77003;BME280;65939;50.060;14.288;2023-05-21T10:08:55;97330.09;;;25.88;61.85
77003;BME280;65939;50.060;14.288;2023-05-21T10:10:57;97322.09;;;25.93;61.81
77003;BME280;65939;50.060;14.288;2023-05-21T10:13:05;97324.25;;;25.91;61.09
77003;BME280;65939;50.060;14.288;2023-05-21T10:15:13;97330.31;;;25.86;60.62
77003;BME280;65939;50.060;14.288;2023-05-21T10:17:15;97332.91;;;25.76;60.87
77003;BME280;65939;50.060;14.288;2023-05-21T10:19:18;97324.47;;;25.62;60.87
77003;BME280;65939;50.060;14.288;2023-05-21T10:21:22;97325.94;;;25.53;61.30
77003;BME280;65939;50.060;14.288;2023-05-21T10:23:23;97318.91;;;25.47;61.04
77003;BME280;65939;50.060;14.288;2023-05-21T10:25:25;97316.56;;;25.50;60.90
77003;BME280;65939;50.060;14.288;2023-05-21T10:27:28;97315.63;;;25.62;61.28
77003;BME280;65939;50.060;14.288;2023-05-21T10:29:30;97305.59;;;25.74;61.39
77003;BME280;65939;50.060;14.288;2023-05-21T10:31:31;97311.91;;;25.90;62.50
77003;BME280;65939;50.060;14.288;2023-05-21T10:33:34;97293.16;;;26.17;60.70
77003;BME280;65939;50.060;14.288;2023-05-21T10:35:37;97299.00;;;26.46;60.39
77003;BME280;65939;50.060;14.288;2023-05-21T10:37:38;97299.75;;;26.79;59.89